EmailTwitter


Surface observations / France / LFBP (07610)

Regions: Quebec | Canada | USA | Europe | France | UK | Elsewhere
Station
Display
Info & Location for LFBP (07610) | Help decoding METAR

Weather Conditions observed on 2018/02/23 at 02:30 UTC at PONT-LONG-UZEIN/, FR (LFBP)

Obstruction(s) to Vision: fog.

Temperature: -3.0 Celsius.

Dewpoint: -4.0 Celsius.

Relative Humidity: 93%

Winds: Calm at 0 km/h or 0 knots.

Mean Sea level Pressure: 101.00 kilopascals.

Horizontal visibility: 3.11 statute miles or 4.97 kilometers.

Coded METAR:

LFBP 230230Z AUTO 00000KT 5000 BR NSC M03/M04 Q1010 NOSIG=